Time;durP1;ratioP1;P1;durP2;ratioP2;P2;SDS_P1;SDS_P2;PMS_P1;PMS_P2;Temp;Humidity;BMP_temperature;BMP_pressure;BME280_temperature;BME280_humidity;BME280_pressure;Samples;Min_cycle;Max_cycle;Signal;HPM_P1;HPM_P2
2022/06/23 00:00:32;;;;;;;2.40;2.03;;;21.60;99.90;;;;;;5073069;28;20202;-76
2022/06/23 00:03:02;;;;;;;3.25;2.03;;;21.50;99.90;;;;;;5071512;28;20206;-75
2022/06/23 00:05:36;;;;;;;2.28;2.08;;;21.30;99.90;;;;;;5075491;28;20289;-73
2022/06/23 00:08:06;;;;;;;2.85;2.20;;;21.30;99.90;;;;;;5065579;28;20226;-75
2022/06/23 00:10:37;;;;;;;4.03;2.00;;;21.30;99.90;;;;;;5087021;28;20248;-74
2022/06/23 00:13:14;;;;;;;6.03;2.80;;;21.30;99.90;;;;;;5085571;28;20734;-74
2022/06/23 00:15:43;;;;;;;4.22;3.22;;;21.40;99.90;;;;;;5093127;28;20197;-74
2022/06/23 00:18:20;;;;;;;4.72;3.63;;;21.40;99.90;;;;;;5093442;28;20205;-72
2022/06/23 00:20:51;;;;;;;5.75;5.13;;;21.40;99.90;;;;;;5078785;28;20213;-73
2022/06/23 00:23:22;;;;;;;6.13;4.75;;;21.30;99.90;;;;;;5092498;28;20210;-74
2022/06/23 00:25:52;;;;;;;9.80;6.28;;;21.30;99.90;;;;;;5093023;28;20201;-74
2022/06/23 00:28:23;;;;;;;5.00;4.60;;;21.30;99.90;;;;;;5092138;28;20236;-75
2022/06/23 00:30:54;;;;;;;4.45;4.03;;;21.30;99.90;;;;;;5092894;28;20657;-76
2022/06/23 00:33:25;;;;;;;5.18;3.50;;;21.20;99.90;;;;;;5092517;28;20263;-73
2022/06/23 00:35:53;;;;;;;3.33;2.83;;;21.10;99.90;;;;;;5089214;28;20230;-73
2022/06/23 00:38:27;;;;;;;2.80;2.60;;;21.10;99.90;;;;;;5082118;28;20205;-74
2022/06/23 00:40:55;;;;;;;4.50;2.92;;;21.00;99.90;;;;;;5092664;28;20217;-75
2022/06/23 00:43:24;;;;;;;6.88;2.47;;;21.00;99.90;;;;;;5092477;28;20592;-75
2022/06/23 00:45:56;;;;;;;3.10;2.80;;;21.00;99.90;;;;;;5092395;28;20205;-75
2022/06/23 00:48:32;;;;;;;3.33;2.90;;;21.00;99.90;;;;;;5092416;28;20233;-75
2022/06/23 00:51:07;;;;;;;3.03;2.83;;;20.90;99.90;;;;;;5092503;28;20687;-75
2022/06/23 00:53:40;;;;;;;2.72;2.30;;;21.00;99.90;;;;;;5092031;28;20234;-75
2022/06/23 00:56:18;;;;;;;4.80;2.95;;;21.00;99.90;;;;;;5092609;28;20259;-75
2022/06/23 00:59:00;;;;;;;2.58;2.38;;;21.00;99.90;;;;;;5092801;28;20244;-75
2022/06/23 01:01:37;;;;;;;4.38;3.35;;;21.00;99.90;;;;;;5092063;28;20242;-75
2022/06/23 01:04:17;;;;;;;2.88;2.65;;;21.00;99.90;;;;;;5092299;28;20578;-75
2022/06/23 01:06:48;;;;;;;2.75;2.55;;;20.80;99.90;;;;;;5092090;28;20205;-74
2022/06/23 01:09:24;;;;;;;3.53;3.20;;;20.90;99.90;;;;;;5092547;28;20306;-75
2022/06/23 01:11:56;;;;;;;3.50;3.10;;;20.80;99.90;;;;;;5077849;28;20209;-75
2022/06/23 01:14:34;;;;;;;3.08;2.78;;;20.80;99.90;;;;;;5091793;28;20237;-75
2022/06/23 01:17:08;;;;;;;2.50;2.28;;;20.80;99.90;;;;;;5091895;28;20198;-75
2022/06/23 01:20:02;;;;;;;3.58;2.78;;;20.90;99.90;;;;;;5091891;28;20212;-75
2022/06/23 01:22:54;;;;;;;3.75;3.30;;;20.90;99.90;;;;;;5067471;28;20205;-74
2022/06/23 01:25:42;;;;;;;3.03;2.72;;;20.90;99.90;;;;;;5091430;28;20571;-74
2022/06/23 01:28:16;;;;;;;3.53;2.97;;;20.90;99.90;;;;;;5091757;28;20330;-73
2022/06/23 01:30:50;;;;;;;4.07;3.47;;;20.80;99.90;;;;;;5091830;28;20673;-74
2022/06/23 01:33:23;;;;;;;4.22;2.70;;;20.60;99.90;;;;;;5091427;28;20668;-74
2022/06/23 01:35:58;;;;;;;3.15;2.72;;;20.60;99.90;;;;;;5091508;28;20202;-73
2022/06/23 01:38:44;;;;;;;3.45;2.88;;;20.60;99.90;;;;;;5091516;28;20281;-73
2022/06/23 01:41:18;;;;;;;2.42;2.22;;;20.50;99.90;;;;;;5090980;28;20214;-73
2022/06/23 01:43:58;;;;;;;2.67;2.25;;;20.50;99.90;;;;;;5091651;28;20586;-73
2022/06/23 01:46:32;;;;;;;2.83;2.53;;;20.60;99.90;;;;;;5091119;28;20209;-73
2022/06/23 01:49:05;;;;;;;5.15;3.28;;;20.50;99.90;;;;;;5091389;28;20233;-75
2022/06/23 01:51:42;;;;;;;4.15;3.05;;;20.40;99.90;;;;;;5091015;28;20235;-75
2022/06/23 01:54:12;;;;;;;3.58;3.28;;;20.20;99.90;;;;;;5091255;28;20205;-74
2022/06/23 01:56:51;;;;;;;4.18;3.15;;;20.20;99.90;;;;;;5090924;28;20205;-75
2022/06/23 01:59:38;;;;;;;5.88;3.25;;;20.20;99.90;;;;;;5090644;28;20684;-75
2022/06/23 02:02:27;;;;;;;2.92;2.72;;;20.10;99.90;;;;;;5091476;28;20298;-75
2022/06/23 02:05:01;;;;;;;4.47;3.00;;;20.00;99.90;;;;;;5065315;28;20248;-76
2022/06/23 02:07:35;;;;;;;2.90;2.50;;;19.90;99.90;;;;;;5090703;28;20265;-74
2022/06/23 02:10:09;;;;;;;2.63;2.42;;;19.90;99.90;;;;;;5087485;28;20678;-75
2022/06/23 02:12:46;;;;;;;3.78;3.00;;;19.90;99.90;;;;;;5081326;28;20274;-74
2022/06/23 02:15:19;;;;;;;3.03;2.72;;;20.00;99.90;;;;;;5091328;28;20215;-75
2022/06/23 02:17:52;;;;;;;5.20;3.13;;;20.10;99.90;;;;;;5091113;28;20263;-74
2022/06/23 02:20:36;;;;;;;3.13;2.83;;;20.20;99.90;;;;;;5090232;28;20689;-74
2022/06/23 02:23:13;;;;;;;2.83;2.63;;;20.20;99.90;;;;;;5091021;28;20213;-74
2022/06/23 02:25:49;;;;;;;3.78;3.42;;;20.20;99.90;;;;;;5090721;28;20247;-74
2022/06/23 02:28:22;;;;;;;3.45;3.15;;;20.10;99.90;;;;;;5090790;28;20229;-75
2022/06/23 02:30:55;;;;;;;3.42;3.13;;;20.00;99.90;;;;;;5090913;28;20201;-75
2022/06/23 02:33:27;;;;;;;3.25;2.95;;;20.00;99.90;;;;;;5090404;28;20267;-75
2022/06/23 02:35:59;;;;;;;3.28;2.97;;;19.80;99.90;;;;;;5090929;28;20205;-76
2022/06/23 02:38:32;;;;;;;6.88;3.28;;;19.60;99.90;;;;;;5090360;28;20259;-75
2022/06/23 02:41:07;;;;;;;4.03;2.70;;;19.80;99.90;;;;;;5090695;28;20243;-75
2022/06/23 02:43:38;;;;;;;4.45;2.78;;;19.90;99.90;;;;;;5090635;28;20269;-75
2022/06/23 02:46:37;;;;;;;7.25;2.97;;;20.00;99.90;;;;;;5090740;28;20262;-75
2022/06/23 02:49:26;;;;;;;4.60;3.10;;;20.00;99.90;;;;;;5090124;28;20233;-73
2022/06/23 02:52:18;;;;;;;4.72;2.80;;;20.00;99.90;;;;;;5092477;28;20619;-74
2022/06/23 02:55:17;;;;;;;3.42;3.13;;;19.90;99.90;;;;;;5094984;28;20213;-74
2022/06/23 02:57:51;;;;;;;4.38;3.17;;;20.00;99.90;;;;;;5095073;28;20201;-75
2022/06/23 03:00:25;;;;;;;6.03;3.90;;;19.80;99.90;;;;;;5094332;28;20212;-74
2022/06/23 03:03:08;;;;;;;4.03;3.03;;;19.80;99.90;;;;;;5094449;28;20197;-74
2022/06/23 03:05:41;;;;;;;3.58;3.25;;;19.70;99.90;;;;;;5094206;28;20262;-74
2022/06/23 03:08:20;;;;;;;2.85;2.30;;;19.80;99.90;;;;;;5094645;28;20377;-75
2022/06/23 03:10:54;;;;;;;4.03;3.70;;;19.80;99.90;;;;;;5084624;28;20206;-74
2022/06/23 03:13:26;;;;;;;4.05;3.60;;;19.90;99.90;;;;;;5090831;28;20684;-75
2022/06/23 03:15:59;;;;;;;2.88;2.67;;;19.80;99.90;;;;;;5094454;28;20729;-74
2022/06/23 03:18:34;;;;;;;4.13;3.42;;;19.70;99.90;;;;;;5093823;28;20208;-74
2022/06/23 03:21:04;;;;;;;3.53;3.15;;;19.70;99.90;;;;;;5094499;28;20258;-74
2022/06/23 03:23:36;;;;;;;4.88;3.20;;;19.80;99.90;;;;;;5093775;28;20673;-74
2022/06/23 03:26:10;;;;;;;3.38;3.00;;;19.90;99.90;;;;;;5094281;28;20206;-74
2022/06/23 03:28:49;;;;;;;5.05;3.30;;;19.80;99.90;;;;;;5093583;28;20289;-74
2022/06/23 03:31:23;;;;;;;5.25;3.10;;;19.80;99.90;;;;;;5093878;28;20206;-74
2022/06/23 03:33:59;;;;;;;3.72;2.50;;;19.70;99.90;;;;;;5094093;28;20209;-74
2022/06/23 03:36:33;;;;;;;3.78;3.03;;;19.70;99.90;;;;;;5093630;28;20615;-75
2022/06/23 03:42:10;;;;;;;3.83;3.03;;;19.80;99.90;;;;;;5093897;28;20221;-73
2022/06/23 03:44:49;;;;;;;3.58;2.70;;;19.90;99.90;;;;;;5093697;28;20640;-74
2022/06/23 03:47:22;;;;;;;7.05;3.38;;;19.80;99.90;;;;;;5093383;28;20209;-74
2022/06/23 03:49:56;;;;;;;4.70;3.58;;;19.90;99.90;;;;;;5093886;28;20233;-75
2022/06/23 03:52:32;;;;;;;4.25;3.35;;;19.80;99.90;;;;;;5093055;28;20582;-75
2022/06/23 03:55:06;;;;;;;3.60;3.17;;;19.70;99.90;;;;;;5093752;28;20270;-75
2022/06/23 03:57:37;;;;;;;4.80;3.47;;;19.80;99.90;;;;;;5092977;28;20266;-75
2022/06/23 04:00:19;;;;;;;4.82;3.58;;;19.90;99.90;;;;;;5093754;28;20267;-75
2022/06/23 04:02:51;;;;;;;3.58;3.25;;;20.10;99.90;;;;;;5092737;28;20254;-75
2022/06/23 04:05:23;;;;;;;3.58;2.97;;;20.10;99.90;;;;;;5093118;28;20212;-74
2022/06/23 04:07:54;;;;;;;3.85;3.50;;;20.10;99.90;;;;;;5093257;28;20728;-75
2022/06/23 04:10:28;;;;;;;3.72;3.20;;;20.20;99.90;;;;;;5086614;28;20252;-75
2022/06/23 04:12:59;;;;;;;5.18;3.70;;;20.20;99.90;;;;;;5086548;28;20219;-75
2022/06/23 04:15:31;;;;;;;5.55;3.10;;;20.30;99.90;;;;;;5064798;28;20205;-75
2022/06/23 04:18:03;;;;;;;4.00;3.70;;;20.20;99.90;;;;;;5093200;28;20259;-75
2022/06/23 04:20:38;;;;;;;4.18;3.33;;;20.20;99.90;;;;;;5092718;28;20206;-75
2022/06/23 04:23:08;;;;;;;6.82;3.90;;;20.10;99.90;;;;;;5093391;28;20578;-75
2022/06/23 04:25:48;;;;;;;4.00;3.55;;;20.20;99.90;;;;;;5092574;28;20739;-75
2022/06/23 04:28:24;;;;;;;3.85;3.17;;;20.30;99.90;;;;;;5093496;28;20286;-75
2022/06/23 04:30:53;;;;;;;4.70;3.67;;;20.30;99.90;;;;;;5066335;28;20201;-75
2022/06/23 04:33:23;;;;;;;5.15;3.78;;;20.30;99.90;;;;;;5092542;28;20206;-75
2022/06/23 04:35:54;;;;;;;4.03;3.63;;;20.20;99.90;;;;;;5093018;28;20201;-75
2022/06/23 04:38:29;;;;;;;3.42;3.13;;;20.20;99.90;;;;;;5092509;28;20668;-75
2022/06/23 04:41:04;;;;;;;6.88;3.70;;;20.30;99.90;;;;;;5064611;28;20221;-75
2022/06/23 04:43:37;;;;;;;5.88;3.28;;;20.40;99.90;;;;;;5092378;28;20201;-75
2022/06/23 04:46:10;;;;;;;5.65;3.65;;;20.40;99.90;;;;;;5092445;28;20255;-74
2022/06/23 04:48:49;;;;;;;4.47;3.90;;;20.20;99.90;;;;;;5092352;28;20225;-74
2022/06/23 04:51:30;;;;;;;6.68;3.28;;;20.00;99.90;;;;;;5087775;28;20276;-74
2022/06/23 04:54:02;;;;;;;4.32;3.75;;;20.10;99.90;;;;;;5073488;28;20209;-74
2022/06/23 04:56:40;;;;;;;7.57;4.03;;;20.20;99.90;;;;;;5091953;28;20201;-74
2022/06/23 04:59:25;;;;;;;4.22;3.75;;;20.10;99.90;;;;;;5088829;28;20262;-75
2022/06/23 05:01:55;;;;;;;4.35;2.80;;;20.00;99.90;;;;;;5086345;28;20232;-74
2022/06/23 05:04:26;;;;;;;7.03;4.22;;;20.10;99.90;;;;;;5082419;28;20213;-74
2022/06/23 05:06:57;;;;;;;4.40;3.97;;;20.00;99.90;;;;;;5080171;28;20252;-74
2022/06/23 05:09:29;;;;;;;3.97;3.67;;;20.00;99.90;;;;;;5070792;28;20241;-75
2022/06/23 05:11:59;;;;;;;6.10;3.17;;;20.20;99.90;;;;;;5076348;28;20681;-75
2022/06/23 05:14:32;;;;;;;5.35;3.78;;;20.30;99.90;;;;;;5077837;28;20267;-75
2022/06/23 05:17:11;;;;;;;6.03;4.00;;;20.40;99.90;;;;;;5090476;28;20749;-75
2022/06/23 05:19:40;;;;;;;3.47;3.17;;;20.50;99.90;;;;;;5091920;28;20270;-74
2022/06/23 05:22:19;;;;;;;4.95;3.78;;;20.50;99.90;;;;;;5091806;28;20205;-74
2022/06/23 05:24:48;;;;;;;3.58;3.28;;;20.50;99.90;;;;;;5092080;28;20212;-74
2022/06/23 05:27:23;;;;;;;3.50;3.20;;;20.50;99.90;;;;;;5091326;28;20262;-74
2022/06/23 05:29:57;;;;;;;4.15;3.35;;;20.60;99.90;;;;;;5091991;28;20388;-74
2022/06/23 05:32:28;;;;;;;4.75;4.00;;;20.70;99.90;;;;;;5091175;28;20205;-75
2022/06/23 05:35:03;;;;;;;5.30;3.58;;;20.70;99.90;;;;;;5091781;28;20201;-75
2022/06/23 05:37:38;;;;;;;7.10;3.97;;;20.70;99.90;;;;;;5089838;28;20217;-75
2022/06/23 05:40:18;;;;;;;4.57;3.35;;;20.80;99.90;;;;;;5091422;28;20657;-75
2022/06/23 05:42:48;;;;;;;3.78;3.42;;;20.60;99.90;;;;;;5082937;28;20214;-72
2022/06/23 05:45:21;;;;;;;4.70;3.15;;;20.70;99.90;;;;;;5069193;28;20198;-76
2022/06/23 05:47:48;;;;;;;4.53;3.40;;;20.70;99.90;;;;;;5077590;28;20201;-77
2022/06/23 05:50:21;;;;;;;4.40;3.97;;;20.70;99.90;;;;;;5085305;28;20240;-73
2022/06/23 05:52:55;;;;;;;3.42;2.97;;;20.70;99.90;;;;;;5091270;28;20251;-74
2022/06/23 05:55:31;;;;;;;6.15;3.40;;;20.80;99.90;;;;;;5090751;28;20588;-75
2022/06/23 05:58:02;;;;;;;9.23;4.75;;;21.00;99.90;;;;;;5063243;28;20197;-71
2022/06/23 06:00:35;;;;;;;4.28;3.83;;;21.10;99.90;;;;;;5083965;28;20218;-75
2022/06/23 06:03:15;;;;;;;8.48;4.15;;;21.20;99.90;;;;;;5091147;28;20250;-72
2022/06/23 06:05:46;;;;;;;5.38;4.25;;;21.40;99.90;;;;;;5091107;28;20651;-73
2022/06/23 06:08:18;;;;;;;6.50;4.13;;;21.40;99.90;;;;;;5091000;28;20206;-72
2022/06/23 06:10:47;;;;;;;6.97;4.35;;;21.30;99.90;;;;;;5081316;28;20230;-73
2022/06/23 06:13:18;;;;;;;7.43;3.97;;;21.30;99.90;;;;;;5086633;28;20292;-75
2022/06/23 06:15:49;;;;;;;4.45;4.00;;;21.20;99.90;;;;;;5091462;28;20205;-75
2022/06/23 06:18:22;;;;;;;6.43;3.85;;;21.10;99.90;;;;;;5090851;28;20254;-76
2022/06/23 06:20:50;;;;;;;4.47;4.07;;;21.20;99.90;;;;;;5090957;28;20209;-74
2022/06/23 06:23:23;;;;;;;7.15;4.28;;;21.40;99.90;;;;;;5090357;28;20262;-74
2022/06/23 06:25:51;;;;;;;8.48;3.97;;;21.50;99.90;;;;;;5090588;28;20205;-75
2022/06/23 06:28:20;;;;;;;5.55;4.10;;;21.40;99.90;;;;;;5090709;28;20701;-73
2022/06/23 06:30:57;;;;;;;7.38;4.20;;;21.40;99.90;;;;;;5091243;28;20225;-75
2022/06/23 06:33:35;;;;;;;5.63;3.80;;;21.40;99.90;;;;;;5090238;28;20665;-75
2022/06/23 06:36:02;;;;;;;4.28;3.67;;;21.60;99.90;;;;;;5066265;28;20286;-77
2022/06/23 06:38:31;;;;;;;4.95;4.15;;;21.70;99.90;;;;;;5090331;28;20376;-74
2022/06/23 06:41:00;;;;;;;5.93;3.92;;;21.70;99.90;;;;;;5090572;28;20221;-72
2022/06/23 06:43:32;;;;;;;4.70;4.30;;;21.40;99.90;;;;;;5090491;28;20245;-73
2022/06/23 06:45:59;;;;;;;9.95;4.50;;;21.60;99.90;;;;;;5090582;28;20254;-75
2022/06/23 06:48:32;;;;;;;4.97;4.13;;;21.80;99.90;;;;;;5079190;28;20275;-78
2022/06/23 06:51:03;;;;;;;4.32;3.78;;;21.90;99.90;;;;;;5074386;28;20261;-75
2022/06/23 06:53:35;;;;;;;5.55;4.68;;;22.00;99.90;;;;;;5081385;28;20262;-74
2022/06/23 06:56:09;;;;;;;5.32;4.80;;;22.00;99.90;;;;;;5083334;28;20637;-76
2022/06/23 06:58:41;;;;;;;5.88;3.95;;;22.00;99.90;;;;;;5063690;28;20206;-75
2022/06/23 07:01:13;;;;;;;5.22;4.75;;;22.00;99.90;;;;;;5088227;28;20613;-71
2022/06/23 07:03:45;;;;;;;5.40;4.40;;;21.90;99.90;;;;;;5083989;28;20213;-73
2022/06/23 07:06:17;;;;;;;4.43;4.03;;;22.00;99.90;;;;;;5087179;28;20216;-73
2022/06/23 07:08:52;;;;;;;4.97;4.43;;;22.60;99.90;;;;;;5081435;28;20215;-73
2022/06/23 07:11:22;;;;;;;6.30;4.13;;;22.70;99.90;;;;;;5075727;28;20621;-76
2022/06/23 07:13:58;;;;;;;5.20;4.47;;;22.80;99.90;;;;;;5089878;28;20672;-73
2022/06/23 07:16:32;;;;;;;4.03;3.63;;;22.70;99.90;;;;;;5083921;28;20205;-73
2022/06/23 07:19:04;;;;;;;6.18;3.60;;;22.90;99.90;;;;;;5090252;28;20205;-75
2022/06/23 07:21:38;;;;;;;5.25;4.75;;;23.00;99.90;;;;;;5089434;28;20626;-71
2022/06/23 07:24:13;;;;;;;7.38;3.55;;;23.10;99.90;;;;;;5090416;28;20198;-75
2022/06/23 07:26:45;;;;;;;7.40;4.35;;;23.40;99.90;;;;;;5090000;28;21026;-69
2022/06/23 07:29:21;;;;;;;4.75;3.35;;;23.10;99.90;;;;;;5089565;28;20274;-69
2022/06/23 07:31:59;;;;;;;5.25;4.03;;;23.60;99.90;;;;;;5090451;28;20580;-71
2022/06/23 07:34:28;;;;;;;5.00;3.38;;;23.70;99.90;;;;;;5066401;28;20266;-68
2022/06/23 07:36:58;;;;;;;5.95;3.70;;;23.90;99.90;;;;;;5089680;28;20584;-80
2022/06/23 07:39:30;;;;;;;4.40;4.00;;;24.00;99.90;;;;;;5076330;28;20210;-69
2022/06/23 07:42:02;;;;;;;4.97;4.00;;;24.20;99.90;;;;;;5073490;28;20214;-80
2022/06/23 07:44:33;;;;;;;3.95;3.53;;;24.50;99.90;;;;;;5073020;28;20206;-69
2022/06/23 07:47:02;;;;;;;6.45;3.92;;;24.60;99.90;;;;;;5073718;28;20260;-69
2022/06/23 07:49:31;;;;;;;4.82;3.45;;;24.60;99.90;;;;;;5072833;28;20710;-75
2022/06/23 07:51:59;;;;;;;4.20;3.00;;;24.50;99.90;;;;;;5073213;28;20230;-70
2022/06/23 07:54:29;;;;;;;8.15;3.30;;;24.50;99.90;;;;;;5073332;28;20784;-69
2022/06/23 07:56:56;;;;;;;7.47;4.15;;;24.50;99.90;;;;;;5073267;28;20206;-71
2022/06/23 07:59:29;;;;;;;5.60;4.55;;;24.50;99.90;;;;;;5072836;28;20623;-67
2022/06/23 08:02:02;;;;;;;6.20;4.20;;;24.80;99.90;;;;;;5072997;28;20255;-73
2022/06/23 08:04:37;;;;;;;4.20;3.80;;;24.80;99.90;;;;;;5072760;28;20206;-67
2022/06/23 08:07:08;;;;;;;6.18;4.07;;;24.90;99.90;;;;;;5073100;28;20643;-67
2022/06/23 08:09:41;;;;;;;4.20;3.55;;;25.40;99.90;;;;;;5073017;28;20275;-70
2022/06/23 08:17:45;;;;;;;5.28;4.15;;;26.00;99.90;;;;;;5093059;28;20636;-67
2022/06/23 08:20:16;;;;;;;6.10;4.15;;;25.70;99.90;;;;;;5092309;28;20689;-68
2022/06/23 08:22:45;;;;;;;7.18;4.03;;;25.00;99.90;;;;;;5093459;28;20259;-67
2022/06/23 08:25:16;;;;;;;3.75;3.33;;;25.30;99.90;;;;;;5092658;28;20240;-69
2022/06/23 08:27:44;;;;;;;5.13;3.72;;;25.30;99.90;;;;;;5093093;28;20241;-67
2022/06/23 08:30:14;;;;;;;3.40;3.10;;;25.20;99.90;;;;;;5092231;28;20708;-67
2022/06/23 08:32:45;;;;;;;4.90;2.95;;;25.80;99.90;;;;;;5093034;28;20615;-67
2022/06/23 08:35:18;;;;;;;6.50;3.75;;;26.10;99.90;;;;;;5092203;28;20255;-67
2022/06/23 08:37:50;;;;;;;3.85;3.47;;;26.40;99.90;;;;;;5092898;28;20263;-68
2022/06/23 08:40:30;;;;;;;4.63;3.90;;;26.60;99.90;;;;;;5092625;28;20641;-68
2022/06/23 08:43:07;;;;;;;6.38;3.78;;;27.30;99.90;;;;;;5092643;28;20262;-67
2022/06/23 08:45:41;;;;;;;4.60;3.67;;;26.70;99.90;;;;;;5092408;28;20617;-67
2022/06/23 08:48:13;;;;;;;4.45;3.60;;;26.80;99.90;;;;;;5092120;28;20731;-67
2022/06/23 08:50:45;;;;;;;3.70;3.40;;;26.70;99.90;;;;;;5091980;28;20287;-68
2022/06/23 08:53:20;;;;;;;6.57;3.65;;;26.70;99.90;;;;;;5092003;28;20685;-67
2022/06/23 08:55:55;;;;;;;5.90;3.65;;;26.80;99.90;;;;;;5092270;28;20204;-67
2022/06/23 08:58:30;;;;;;;3.30;2.90;;;26.60;99.90;;;;;;5092562;28;20255;-67
2022/06/23 09:01:03;;;;;;;5.40;2.85;;;26.30;99.90;;;;;;5092386;28;20208;-69
2022/06/23 09:03:41;;;;;;;5.70;4.35;;;25.90;99.90;;;;;;5091694;28;20665;-70
2022/06/23 09:06:18;;;;;;;4.32;3.45;;;25.70;99.90;;;;;;5091936;28;20201;-70
2022/06/23 09:08:56;;;;;;;5.13;3.70;;;25.60;99.90;;;;;;5092429;28;20261;-71
2022/06/23 09:11:33;;;;;;;5.80;4.18;;;25.60;99.90;;;;;;5077517;28;20269;-68
2022/06/23 09:14:25;;;;;;;5.45;3.25;;;25.40;99.90;;;;;;5092238;28;20205;-69
2022/06/23 09:17:09;;;;;;;3.58;2.95;;;25.20;99.90;;;;;;5092267;28;20274;-70
2022/06/23 09:19:54;;;;;;;6.82;4.13;;;25.30;99.90;;;;;;5092360;28;20642;-69
2022/06/23 09:22:47;;;;;;;4.72;3.25;;;25.30;99.90;;;;;;5065432;28;20205;-69
2022/06/23 09:25:21;;;;;;;7.22;3.38;;;25.30;99.90;;;;;;5088881;28;20205;-69
2022/06/23 09:28:10;;;;;;;6.28;2.80;;;25.60;99.90;;;;;;5081560;28;20266;-70
2022/06/23 09:30:40;;;;;;;4.20;2.90;;;25.90;99.90;;;;;;5091713;28;20229;-72
2022/06/23 09:33:22;;;;;;;6.68;2.92;;;25.90;99.90;;;;;;5091459;28;20630;-71
2022/06/23 09:36:20;;;;;;;3.78;2.95;;;25.90;99.90;;;;;;5091744;28;20201;-72
2022/06/23 09:39:29;;;;;;;2.30;2.10;;;25.70;99.90;;;;;;5091645;28;20206;-75
2022/06/23 09:42:21;;;;;;;3.13;2.60;;;25.40;99.90;;;;;;5080621;28;20589;-72
2022/06/23 09:45:08;;;;;;;4.60;3.17;;;25.40;99.90;;;;;;5091558;28;20213;-76
2022/06/23 09:47:51;;;;;;;4.57;3.08;;;25.50;99.90;;;;;;5091164;28;20202;-75
2022/06/23 09:50:44;;;;;;;3.70;3.40;;;25.30;99.90;;;;;;5091012;28;20233;-71
2022/06/23 09:53:36;;;;;;;4.53;4.22;;;24.90;99.90;;;;;;5083744;28;20197;-74
2022/06/23 09:56:41;;;;;;;6.20;4.50;;;24.50;99.90;;;;;;5091065;28;20266;-77
2022/06/23 09:59:40;;;;;;;6.32;3.65;;;24.60;99.90;;;;;;5077962;28;20700;-71
2022/06/23 10:02:16;;;;;;;7.38;3.90;;;24.70;99.90;;;;;;5090204;28;20233;-72
2022/06/23 10:04:56;;;;;;;4.85;3.80;;;24.90;99.90;;;;;;5091007;28;20277;-70
2022/06/23 10:08:01;;;;;;;4.72;3.83;;;24.90;99.90;;;;;;5065131;28;20645;-74
2022/06/23 10:10:47;;;;;;;4.30;3.58;;;24.70;99.90;;;;;;5045559;28;20237;-69
2022/06/23 10:13:35;;;;;;;5.38;3.53;;;26.90;99.90;;;;;;5083684;28;20217;-71
2022/06/23 10:16:18;;;;;;;6.38;4.32;;;32.50;99.90;;;;;;5067460;28;20252;-70
2022/06/23 10:19:07;;;;;;;5.45;3.70;;;29.30;99.90;;;;;;5078652;28;20201;-70
2022/06/23 10:21:49;;;;;;;3.47;3.17;;;29.30;99.90;;;;;;5074929;28;20198;-71
2022/06/23 10:24:29;;;;;;;4.53;3.10;;;28.30;99.90;;;;;;5085588;28;20592;-76
2022/06/23 10:27:16;;;;;;;3.83;3.22;;;29.30;99.90;;;;;;5074873;28;20212;-73
2022/06/23 10:30:12;;;;;;;4.97;3.22;;;31.20;99.90;;;;;;5082462;28;20743;-71
2022/06/23 10:33:09;;;;;;;6.22;3.42;;;34.00;99.90;;;;;;5069870;28;20256;-71
2022/06/23 10:35:49;;;;;;;4.03;3.72;;;34.90;99.90;;;;;;5086168;28;20209;-71
2022/06/23 10:38:30;;;;;;;5.75;4.10;;;32.10;99.90;;;;;;5075629;28;20202;-73
2022/06/23 10:41:25;;;;;;;5.35;4.63;;;29.60;99.90;;;;;;5066606;28;20225;-73
2022/06/23 10:44:24;;;;;;;4.93;4.15;;;27.60;99.90;;;;;;5066567;28;20263;-79
2022/06/23 10:47:03;;;;;;;5.38;3.60;;;26.80;99.90;;;;;;5055747;28;20210;-76
2022/06/23 10:49:52;;;;;;;4.22;3.70;;;26.90;99.90;;;;;;5071897;28;20205;-71
2022/06/23 10:52:50;;;;;;;4.13;3.78;;;26.90;99.90;;;;;;5066837;28;20210;-70
2022/06/23 10:55:42;;;;;;;3.90;3.60;;;26.80;99.90;;;;;;5068714;28;20678;-71
2022/06/23 10:58:43;;;;;;;3.38;3.15;;;26.70;99.90;;;;;;5074327;28;20233;-70
2022/06/23 11:01:31;;;;;;;3.45;3.15;;;27.00;99.90;;;;;;5038772;28;20205;-70
2022/06/23 11:04:40;;;;;;;3.88;3.53;;;27.20;99.90;;;;;;5077595;28;20670;-70
2022/06/23 11:07:21;;;;;;;4.20;3.22;;;26.90;99.90;;;;;;5063869;28;20206;-72
2022/06/23 11:10:08;;;;;;;3.90;3.28;;;26.60;99.90;;;;;;5087712;28;20204;-70
2022/06/23 11:12:54;;;;;;;5.00;3.33;;;26.40;99.90;;;;;;5081891;28;20699;-70
2022/06/23 11:15:30;;;;;;;3.53;3.20;;;26.70;99.90;;;;;;5081955;28;20739;-72
2022/06/23 11:18:15;;;;;;;3.88;3.10;;;26.60;99.90;;;;;;5085244;28;20279;-71
2022/06/23 11:20:53;;;;;;;3.80;2.92;;;27.00;99.90;;;;;;5061117;28;20206;-72
2022/06/23 11:23:31;;;;;;;5.15;3.60;;;26.80;99.90;;;;;;5078561;28;20608;-72
2022/06/23 11:26:08;;;;;;;2.85;2.50;;;27.10;99.90;;;;;;5094678;28;20209;-75
2022/06/23 11:28:50;;;;;;;4.00;3.17;;;26.40;99.90;;;;;;5086312;28;20254;-71
2022/06/23 11:31:35;;;;;;;3.08;2.80;;;27.10;99.90;;;;;;5093788;28;20313;-71
2022/06/23 11:34:20;;;;;;;2.95;2.40;;;27.60;99.90;;;;;;5083589;28;20673;-71
2022/06/23 11:37:06;;;;;;;5.45;3.00;;;27.60;99.90;;;;;;5085825;28;20665;-71
2022/06/23 11:40:01;;;;;;;2.65;2.38;;;27.80;99.90;;;;;;5068074;28;20294;-70
2022/06/23 11:42:53;;;;;;;2.95;2.22;;;27.50;99.90;;;;;;5082711;28;20220;-70
2022/06/23 11:45:40;;;;;;;4.57;2.72;;;27.60;99.90;;;;;;5093504;28;20201;-70
2022/06/23 11:48:24;;;;;;;6.25;2.35;;;27.70;99.90;;;;;;5072444;28;20206;-70
2022/06/23 11:51:02;;;;;;;7.57;2.80;;;27.40;99.90;;;;;;5080899;28;20702;-73
2022/06/23 11:53:43;;;;;;;3.65;1.85;;;27.60;99.90;;;;;;5082347;28;20206;-71
2022/06/23 11:56:22;;;;;;;3.75;1.70;;;27.40;99.90;;;;;;5078591;28;20206;-72
2022/06/23 11:59:16;;;;;;;6.80;2.15;;;27.50;99.90;;;;;;5085896;28;20582;-80
2022/06/23 12:01:43;;;;;;;3.28;1.95;;;27.70;99.90;;;;;;5079309;28;20206;-82
2022/06/23 12:04:38;;;;;;;2.45;1.85;;;27.70;99.90;;;;;;5085707;28;20201;-72
2022/06/23 12:07:24;;;;;;;2.75;1.40;;;27.50;99.90;;;;;;5069893;28;20207;-73
2022/06/23 12:10:04;;;;;;;5.75;1.90;;;27.10;99.90;;;;;;5073875;28;20202;-71
2022/06/23 12:12:33;;;;;;;2.63;1.70;;;27.50;99.90;;;;;;5074034;28;20238;-72
2022/06/23 12:15:04;;;;;;;1.60;1.40;;;27.20;99.90;;;;;;5080397;28;20691;-71
2022/06/23 12:17:35;;;;;;;3.58;1.58;;;27.40;99.90;;;;;;5072266;28;20211;-71
2022/06/23 12:20:11;;;;;;;1.88;1.42;;;27.60;99.90;;;;;;5072959;28;20260;-74
2022/06/23 12:22:44;;;;;;;1.75;1.63;;;27.30;99.90;;;;;;5068253;28;20208;-70
2022/06/23 12:25:20;;;;;;;1.38;1.20;;;27.60;99.90;;;;;;5065853;28;20202;-70
2022/06/23 12:27:52;;;;;;;2.25;1.83;;;27.70;99.90;;;;;;5068103;28;20205;-70
2022/06/23 12:30:21;;;;;;;3.85;2.20;;;27.50;99.90;;;;;;5080100;28;20243;-70
2022/06/23 12:32:54;;;;;;;4.82;1.40;;;27.70;99.90;;;;;;5085564;28;20267;-70
2022/06/23 12:35:28;;;;;;;3.97;1.42;;;27.70;99.90;;;;;;5088501;28;20213;-75
2022/06/23 12:38:00;;;;;;;2.17;1.45;;;27.90;99.90;;;;;;5079337;28;20205;-70
2022/06/23 12:40:33;;;;;;;2.38;1.60;;;28.00;99.90;;;;;;5077512;28;20250;-70
2022/06/23 12:43:09;;;;;;;1.60;1.50;;;27.40;99.90;;;;;;5071456;28;20210;-71
2022/06/23 12:45:53;;;;;;;2.65;1.92;;;27.60;99.90;;;;;;5087373;28;20197;-71
2022/06/23 12:48:50;;;;;;;2.13;1.33;;;27.50;99.90;;;;;;5078187;28;20213;-71
2022/06/23 12:51:27;;;;;;;2.65;1.70;;;27.20;99.90;;;;;;5074242;28;20261;-70
2022/06/23 12:54:12;;;;;;;1.83;1.70;;;27.50;99.90;;;;;;5080519;28;20588;-72
2022/06/23 12:56:56;;;;;;;1.77;1.52;;;27.70;99.90;;;;;;5083373;28;20699;-74
2022/06/23 12:59:29;;;;;;;2.28;2.08;;;27.90;99.90;;;;;;5067488;28;20263;-70
2022/06/23 13:02:07;;;;;;;4.95;1.80;;;28.00;99.90;;;;;;5066122;28;20247;-72
2022/06/23 13:04:44;;;;;;;4.03;1.38;;;28.30;99.90;;;;;;5074377;28;20693;-70
2022/06/23 13:07:18;;;;;;;5.30;2.28;;;28.00;99.90;;;;;;5073087;28;20214;-71
2022/06/23 13:09:51;;;;;;;4.00;2.00;;;28.20;99.90;;;;;;5080257;28;20562;-74
2022/06/23 13:12:24;;;;;;;1.23;1.13;;;28.30;99.90;;;;;;5072243;28;20226;-70
2022/06/23 13:14:55;;;;;;;2.38;1.25;;;28.20;99.90;;;;;;5074009;28;20206;-77
2022/06/23 13:17:33;;;;;;;7.68;2.00;;;28.50;99.90;;;;;;5073174;28;20238;-72
2022/06/23 13:20:06;;;;;;;3.08;1.45;;;28.50;99.90;;;;;;5077384;28;20201;-72
2022/06/23 13:22:45;;;;;;;2.03;1.58;;;28.90;99.90;;;;;;5073182;28;20214;-69
2022/06/23 13:25:17;;;;;;;2.80;1.50;;;29.30;99.90;;;;;;5072109;28;20198;-75
2022/06/23 13:27:50;;;;;;;2.88;1.33;;;29.40;99.90;;;;;;5071864;28;20251;-71
2022/06/23 13:30:20;;;;;;;2.50;1.30;;;29.10;99.90;;;;;;5076804;28;20210;-71
2022/06/23 13:33:02;;;;;;;2.08;1.20;;;28.80;99.90;;;;;;5082287;28;20283;-71
2022/06/23 13:35:35;;;;;;;3.58;1.67;;;28.70;99.90;;;;;;5070923;28;20257;-71
2022/06/23 13:38:15;;;;;;;1.50;1.17;;;29.10;99.90;;;;;;5074164;28;20260;-74
2022/06/23 13:40:48;;;;;;;2.80;1.10;;;28.90;99.90;;;;;;5073768;28;20712;-71
2022/06/23 13:43:26;;;;;;;4.95;0.93;;;28.80;99.90;;;;;;5072251;28;20263;-71
2022/06/23 13:45:58;;;;;;;1.42;1.30;;;28.70;99.90;;;;;;5065826;28;20269;-72